Time;durP1;ratioP1;P1;durP2;ratioP2;P2;SDS_P1;SDS_P2;PMS_P1;PMS_P2;Temp;Humidity;BMP_temperature;BMP_pressure;BME280_temperature;BME280_humidity;BME280_pressure;Samples;Min_cycle;Max_cycle;Signal;HPM_P1;HPM_P2
2023/10/16 00:00:47;;;;;;;4.15;0.68;;;;;;;;;;5078448;28;20612;-59
2023/10/16 00:03:17;;;;;;;2.85;0.80;;;;;;;;;;5075413;28;20067;-59
2023/10/16 00:05:51;;;;;;;3.60;0.65;;;;;;;;;;5073151;28;20048;-59
2023/10/16 00:08:18;;;;;;;4.38;0.80;;;;;;;;;;5072351;28;20044;-59
2023/10/16 00:10:57;;;;;;;13.02;1.02;;;;;;;;;;5072273;28;20119;-59
2023/10/16 00:13:26;;;;;;;7.43;1.20;;;;;;;;;;5074703;28;20120;-59
2023/10/16 00:15:54;;;;;;;10.82;2.25;;;;;;;;;;5076670;28;20127;-59
2023/10/16 00:18:23;;;;;;;6.68;0.85;;;;;;;;;;5081964;28;20073;-59
2023/10/16 00:20:50;;;;;;;4.30;0.70;;;;;;;;;;5084517;28;20055;-59
2023/10/16 00:23:17;;;;;;;10.32;0.98;;;;;;;;;;5074188;28;20504;-59
2023/10/16 00:25:44;;;;;;;7.38;1.00;;;;;;;;;;5075968;28;20104;-59
2023/10/16 00:28:11;;;;;;;9.65;1.13;;;;;;;;;;5075345;28;20081;-60
2023/10/16 00:30:38;;;;;;;7.97;0.80;;;;;;;;;;5071202;28;20044;-59
2023/10/16 00:33:08;;;;;;;5.90;1.80;;;;;;;;;;5075126;28;20112;-59
2023/10/16 00:35:35;;;;;;;10.27;1.02;;;;;;;;;;5076648;28;20067;-59
2023/10/16 00:38:03;;;;;;;7.63;0.75;;;;;;;;;;5074364;28;20051;-59
2023/10/16 00:40:32;;;;;;;9.23;1.25;;;;;;;;;;5071601;28;20056;-59
2023/10/16 00:43:19;;;;;;;6.88;1.02;;;;;;;;;;5072382;28;20032;-59
2023/10/16 00:45:49;;;;;;;6.43;1.00;;;;;;;;;;5073219;28;20455;-60
2023/10/16 00:48:18;;;;;;;8.65;1.15;;;;;;;;;;5075651;28;20044;-59
2023/10/16 00:50:48;;;;;;;6.32;2.28;;;;;;;;;;5069635;28;20521;-60
2023/10/16 00:53:15;;;;;;;6.47;0.85;;;;;;;;;;5071313;28;20041;-59
2023/10/16 00:55:41;;;;;;;8.70;0.90;;;;;;;;;;5071226;28;20192;-59
2023/10/16 00:58:07;;;;;;;5.97;1.23;;;;;;;;;;5070816;28;20052;-59
2023/10/16 01:00:45;;;;;;;7.53;0.90;;;;;;;;;;5087327;28;20049;-59
2023/10/16 01:03:11;;;;;;;6.85;1.73;;;;;;;;;;5070994;28;20047;-60
2023/10/16 01:05:49;;;;;;;9.90;1.02;;;;;;;;;;5071308;28;20067;-59
2023/10/16 01:08:17;;;;;;;6.00;0.80;;;;;;;;;;5071732;28;20044;-60
2023/10/16 01:10:48;;;;;;;7.20;1.13;;;;;;;;;;5071164;28;20110;-59
2023/10/16 01:13:16;;;;;;;6.22;0.68;;;;;;;;;;5071533;28;20047;-59
2023/10/16 01:15:53;;;;;;;6.85;0.65;;;;;;;;;;5070900;28;21262;-60
2023/10/16 01:18:19;;;;;;;7.07;0.93;;;;;;;;;;5073360;28;20097;-59
2023/10/16 01:20:49;;;;;;;10.05;0.75;;;;;;;;;;5075289;28;20048;-59
2023/10/16 01:23:25;;;;;;;8.43;1.02;;;;;;;;;;5071747;28;20077;-59
2023/10/16 01:25:52;;;;;;;5.80;0.95;;;;;;;;;;5070093;28;20119;-59
2023/10/16 01:28:19;;;;;;;6.80;0.93;;;;;;;;;;5082103;28;20114;-59
2023/10/16 01:30:47;;;;;;;9.35;1.00;;;;;;;;;;5071536;28;20081;-59
2023/10/16 01:33:16;;;;;;;8.30;0.95;;;;;;;;;;5068366;28;20140;-59
2023/10/16 01:35:46;;;;;;;5.72;0.77;;;;;;;;;;5070165;28;20365;-59
2023/10/16 01:38:15;;;;;;;5.72;0.70;;;;;;;;;;5070618;28;20131;-59
2023/10/16 01:43:32;;;;;;;3.00;1.00;;;;;;;;;;5075163;28;20469;-59
2023/10/16 01:46:00;;;;;;;4.20;1.10;;;;;;;;;;5071977;28;20449;-59
2023/10/16 01:48:30;;;;;;;5.68;0.77;;;;;;;;;;5082178;28;20071;-59
2023/10/16 01:50:57;;;;;;;9.32;0.88;;;;;;;;;;5074120;28;20059;-59
2023/10/16 01:53:27;;;;;;;6.47;0.90;;;;;;;;;;5072215;28;21228;-59
2023/10/16 01:55:56;;;;;;;4.93;1.10;;;;;;;;;;5069823;28;20036;-59
2023/10/16 01:58:23;;;;;;;3.50;0.90;;;;;;;;;;5072890;28;20441;-59
2023/10/16 02:00:51;;;;;;;7.22;0.98;;;;;;;;;;5068588;28;20123;-59
2023/10/16 02:03:17;;;;;;;5.53;0.95;;;;;;;;;;5073285;28;20091;-59
2023/10/16 02:05:46;;;;;;;6.30;1.30;;;;;;;;;;5068164;28;20101;-59
2023/10/16 02:08:13;;;;;;;8.63;1.27;;;;;;;;;;5072958;28;20111;-59
2023/10/16 02:10:40;;;;;;;13.35;2.33;;;;;;;;;;5077599;28;20054;-59
2023/10/16 02:13:07;;;;;;;7.00;0.90;;;;;;;;;;5075047;28;20048;-59
2023/10/16 02:15:36;;;;;;;5.32;1.02;;;;;;;;;;5076427;28;20059;-59
2023/10/16 02:18:09;;;;;;;11.50;1.67;;;;;;;;;;5078702;28;20483;-59
2023/10/16 02:20:37;;;;;;;7.15;1.13;;;;;;;;;;5078003;28;20041;-59
2023/10/16 02:23:06;;;;;;;8.13;1.23;;;;;;;;;;5078746;28;20113;-59
2023/10/16 02:25:33;;;;;;;5.93;1.17;;;;;;;;;;5075742;28;20048;-59
2023/10/16 02:27:59;;;;;;;3.85;0.77;;;;;;;;;;5092650;28;20078;-59
2023/10/16 02:32:53;;;;;;;16.50;1.42;;;;;;;;;;5070290;28;20416;-59
2023/10/16 02:35:22;;;;;;;9.00;0.93;;;;;;;;;;5077822;28;20566;-59
2023/10/16 02:37:57;;;;;;;4.68;0.85;;;;;;;;;;5078676;28;20108;-59
2023/10/16 02:40:26;;;;;;;4.63;0.95;;;;;;;;;;5077335;28;20044;-59
2023/10/16 02:42:56;;;;;;;7.00;1.17;;;;;;;;;;5079774;28;20046;-59
2023/10/16 02:45:26;;;;;;;5.15;1.10;;;;;;;;;;5084533;28;20074;-59
2023/10/16 02:47:53;;;;;;;7.97;1.00;;;;;;;;;;5071904;28;20384;-59
2023/10/16 02:50:19;;;;;;;6.20;0.85;;;;;;;;;;5073288;28;20046;-59
2023/10/16 02:52:49;;;;;;;8.18;1.17;;;;;;;;;;5077845;28;20446;-59
2023/10/16 02:55:15;;;;;;;6.57;1.30;;;;;;;;;;5077104;28;20033;-60
2023/10/16 02:57:42;;;;;;;6.60;1.35;;;;;;;;;;5075783;28;20119;-59
2023/10/16 03:03:06;;;;;;;10.48;1.50;;;;;;;;;;5069770;28;20142;-59
2023/10/16 03:05:32;;;;;;;9.05;1.30;;;;;;;;;;5071173;28;20048;-59
2023/10/16 03:07:58;;;;;;;7.78;1.33;;;;;;;;;;5077257;28;20495;-59
2023/10/16 03:10:26;;;;;;;7.82;1.27;;;;;;;;;;5076597;28;20099;-60
2023/10/16 03:12:59;;;;;;;6.38;1.15;;;;;;;;;;5076093;28;20068;-59
2023/10/16 03:15:29;;;;;;;9.77;1.70;;;;;;;;;;5077003;28;20059;-59
2023/10/16 03:17:56;;;;;;;3.78;0.93;;;;;;;;;;5090659;28;20059;-59
2023/10/16 03:20:24;;;;;;;6.70;1.30;;;;;;;;;;5087701;28;20067;-59
2023/10/16 03:22:51;;;;;;;7.68;1.27;;;;;;;;;;5077268;28;20051;-59
2023/10/16 03:25:51;;;;;;;6.50;1.10;;;;;;;;;;5074866;28;20051;-59
2023/10/16 03:28:11;;;;;;;13.70;2.05;;;;;;;;;;5072102;28;20047;-61
2023/10/16 03:30:39;;;;;;;13.10;1.35;;;;;;;;;;5088460;28;20613;-59
2023/10/16 03:33:07;;;;;;;5.72;1.08;;;;;;;;;;5073490;28;20377;-59
2023/10/16 03:35:34;;;;;;;11.07;1.38;;;;;;;;;;5075203;28;20044;-59
2023/10/16 03:38:20;;;;;;;6.78;1.33;;;;;;;;;;5075704;28;20458;-59
2023/10/16 03:40:51;;;;;;;5.50;1.13;;;;;;;;;;5069911;28;20117;-59
2023/10/16 03:43:18;;;;;;;8.68;1.27;;;;;;;;;;5073390;28;20149;-59
2023/10/16 03:45:45;;;;;;;4.45;0.82;;;;;;;;;;5076005;28;20044;-59
2023/10/16 03:48:11;;;;;;;7.57;1.20;;;;;;;;;;5073224;28;21466;-59
2023/10/16 03:50:39;;;;;;;6.63;1.30;;;;;;;;;;5083834;28;20054;-59
2023/10/16 03:53:07;;;;;;;5.47;0.95;;;;;;;;;;5074135;28;20056;-59
2023/10/16 03:55:49;;;;;;;5.70;0.80;;;;;;;;;;5073601;28;20128;-59
2023/10/16 03:58:19;;;;;;;6.60;0.95;;;;;;;;;;5072328;28;20071;-59
2023/10/16 04:00:52;;;;;;;4.57;1.15;;;;;;;;;;5075497;28;20040;-59
2023/10/16 04:03:19;;;;;;;5.55;1.15;;;;;;;;;;5072272;28;20036;-59
2023/10/16 04:05:49;;;;;;;9.40;1.40;;;;;;;;;;5071772;28;20397;-59
2023/10/16 04:08:26;;;;;;;9.90;1.20;;;;;;;;;;5073031;28;20072;-59
2023/10/16 04:10:56;;;;;;;6.60;1.25;;;;;;;;;;5087594;28;20115;-59
2023/10/16 04:13:31;;;;;;;9.15;1.15;;;;;;;;;;5075663;28;20063;-59
2023/10/16 04:18:30;;;;;;;7.60;0.85;;;;;;;;;;5074414;28;20043;-60
2023/10/16 04:31:43;;;;;;;12.73;1.55;;;;;;;;;;5074267;28;20131;-59
2023/10/16 05:00:57;;;;;;;10.70;1.08;;;;;;;;;;5075053;28;20082;-60
2023/10/16 05:03:25;;;;;;;3.47;0.80;;;;;;;;;;5070749;28;20108;-59
2023/10/16 05:17:07;;;;;;;6.25;1.17;;;;;;;;;;5071518;28;20105;-59
2023/10/16 06:14:09;;;;;;;6.05;0.82;;;;;;;;;;5072650;28;20044;-59
2023/10/16 06:14:25;;;;;;;6.10;1.10;;;;;;;;;;5078097;28;20084;-60
2023/10/16 06:16:54;;;;;;;8.63;1.33;;;;;;;;;;5083748;28;20048;-59
2023/10/16 06:19:22;;;;;;;10.93;1.33;;;;;;;;;;5068722;28;20506;-65
2023/10/16 06:21:50;;;;;;;5.88;1.25;;;;;;;;;;5081221;28;20047;-60
2023/10/16 06:24:25;;;;;;;9.43;1.10;;;;;;;;;;5073548;28;20127;-60
2023/10/16 06:26:59;;;;;;;7.50;1.35;;;;;;;;;;5062568;28;20051;-60
2023/10/16 06:29:35;;;;;;;9.65;1.73;;;;;;;;;;5070507;28;20048;-60
2023/10/16 06:32:06;;;;;;;7.53;1.50;;;;;;;;;;5087889;28;20517;-60
2023/10/16 06:34:33;;;;;;;8.82;1.50;;;;;;;;;;5089547;28;20540;-60
2023/10/16 06:37:05;;;;;;;9.02;1.67;;;;;;;;;;5073311;28;20131;-60
2023/10/16 06:39:35;;;;;;;6.32;1.33;;;;;;;;;;5085581;28;20105;-60
2023/10/16 06:42:05;;;;;;;5.80;1.30;;;;;;;;;;5077302;28;20051;-60
2023/10/16 06:44:34;;;;;;;5.65;1.55;;;;;;;;;;5071540;28;20040;-59
2023/10/16 06:47:00;;;;;;;11.52;1.67;;;;;;;;;;5069277;28;20143;-59
2023/10/16 06:49:28;;;;;;;5.15;1.98;;;;;;;;;;5080897;28;20044;-60
2023/10/16 06:51:58;;;;;;;5.40;1.30;;;;;;;;;;5083292;28;20047;-60
2023/10/16 06:54:25;;;;;;;8.43;1.25;;;;;;;;;;5078616;28;20044;-60
2023/10/16 06:56:52;;;;;;;8.90;1.58;;;;;;;;;;5085084;28;20059;-60
2023/10/16 06:59:18;;;;;;;6.07;1.67;;;;;;;;;;5081817;28;20065;-59
2023/10/16 07:01:47;;;;;;;11.57;1.42;;;;;;;;;;5078935;28;20048;-60
2023/10/16 07:04:19;;;;;;;10.40;1.67;;;;;;;;;;5076278;28;20044;-59
2023/10/16 07:06:48;;;;;;;8.07;1.35;;;;;;;;;;5093304;28;20056;-59
2023/10/16 07:09:16;;;;;;;7.60;1.58;;;;;;;;;;5089736;28;20463;-60
2023/10/16 07:11:42;;;;;;;10.60;1.40;;;;;;;;;;5088433;28;20372;-59
2023/10/16 07:14:12;;;;;;;11.68;1.55;;;;;;;;;;5075931;28;20523;-59
2023/10/16 07:16:42;;;;;;;8.95;1.35;;;;;;;;;;5064495;28;20128;-59
2023/10/16 07:19:13;;;;;;;6.63;1.40;;;;;;;;;;5069010;28;20037;-60
2023/10/16 07:21:41;;;;;;;4.50;1.13;;;;;;;;;;5065894;28;20461;-59
2023/10/16 07:24:09;;;;;;;11.60;1.52;;;;;;;;;;5068849;28;20108;-60
2023/10/16 07:26:35;;;;;;;12.60;1.42;;;;;;;;;;5072278;28;20056;-60
2023/10/16 07:29:01;;;;;;;17.95;2.72;;;;;;;;;;5072950;28;20048;-61
2023/10/16 07:31:28;;;;;;;12.52;2.13;;;;;;;;;;5070644;28;20067;-60
2023/10/16 07:33:59;;;;;;;6.95;1.65;;;;;;;;;;5073113;28;20033;-60
2023/10/16 07:36:26;;;;;;;8.18;1.60;;;;;;;;;;5072500;28;20106;-60
2023/10/16 07:38:54;;;;;;;13.82;1.85;;;;;;;;;;5072096;28;20035;-63
2023/10/16 07:41:23;;;;;;;6.18;1.20;;;;;;;;;;5071170;28;20527;-60
2023/10/16 07:43:56;;;;;;;7.20;2.42;;;;;;;;;;5069518;28;20095;-61
2023/10/16 07:46:29;;;;;;;13.45;1.60;;;;;;;;;;5067384;28;20508;-60
2023/10/16 07:48:56;;;;;;;6.40;1.60;;;;;;;;;;5064865;28;20414;-60
2023/10/16 07:51:27;;;;;;;7.15;1.20;;;;;;;;;;5070664;28;20049;-60
2023/10/16 07:53:53;;;;;;;13.75;2.38;;;;;;;;;;5070521;28;20056;-60
2023/10/16 07:58:54;;;;;;;11.38;1.65;;;;;;;;;;5071782;28;20045;-60
2023/10/16 08:01:36;;;;;;;10.10;1.80;;;;;;;;;;5077646;28;20056;-60
2023/10/16 08:04:06;;;;;;;6.95;1.33;;;;;;;;;;5092773;28;20041;-61
2023/10/16 08:06:39;;;;;;;22.95;1.52;;;;;;;;;;5075556;28;20228;-60
2023/10/16 08:12:40;;;;;;;7.45;2.10;;;;;;;;;;5075294;28;20064;-60
2023/10/16 08:14:54;;;;;;;11.82;1.95;;;;;;;;;;5072816;28;20147;-60
2023/10/16 08:17:26;;;;;;;8.88;1.45;;;;;;;;;;5075294;28;20117;-60
2023/10/16 08:19:52;;;;;;;9.07;1.70;;;;;;;;;;5087286;28;20071;-60
2023/10/16 08:22:25;;;;;;;9.40;1.65;;;;;;;;;;5090553;28;20032;-60
2023/10/16 08:24:57;;;;;;;8.90;1.75;;;;;;;;;;5074276;28;20040;-60
2023/10/16 08:27:43;;;;;;;6.63;2.08;;;;;;;;;;5091399;28;20066;-60
2023/10/16 08:30:33;;;;;;;10.35;2.63;;;;;;;;;;5092061;28;20048;-60
2023/10/16 08:33:09;;;;;;;7.55;1.80;;;;;;;;;;5092289;28;20063;-60
2023/10/16 08:35:39;;;;;;;9.48;2.22;;;;;;;;;;5086941;28;20044;-60
2023/10/16 08:38:14;;;;;;;9.70;1.63;;;;;;;;;;5080398;28;20434;-61
2023/10/16 08:40:44;;;;;;;7.97;1.60;;;;;;;;;;5073183;28;20083;-60
2023/10/16 08:43:16;;;;;;;8.65;2.08;;;;;;;;;;5079328;28;20122;-60
2023/10/16 08:45:49;;;;;;;9.30;1.55;;;;;;;;;;5079564;28;20119;-60
2023/10/16 08:48:19;;;;;;;6.30;1.20;;;;;;;;;;5078015;28;20040;-60
2023/10/16 08:50:57;;;;;;;7.82;1.52;;;;;;;;;;5084563;28;20090;-60
2023/10/16 08:53:32;;;;;;;6.78;1.23;;;;;;;;;;5067375;28;20353;-60
2023/10/16 08:56:08;;;;;;;9.82;1.25;;;;;;;;;;5078823;28;20326;-60
2023/10/16 08:58:38;;;;;;;11.85;1.50;;;;;;;;;;5083726;28;20112;-60
2023/10/16 09:01:07;;;;;;;7.93;1.90;;;;;;;;;;5088611;28;20044;-60
2023/10/16 09:03:46;;;;;;;13.00;1.52;;;;;;;;;;5072291;28;20044;-60
2023/10/16 09:06:21;;;;;;;14.18;1.40;;;;;;;;;;5066975;28;20132;-61
2023/10/16 09:08:48;;;;;;;8.15;1.58;;;;;;;;;;5080418;28;20555;-60
2023/10/16 09:11:16;;;;;;;6.38;1.23;;;;;;;;;;5091328;28;20143;-60
2023/10/16 09:13:50;;;;;;;11.45;1.33;;;;;;;;;;5070823;28;20049;-60
2023/10/16 09:16:21;;;;;;;12.98;1.70;;;;;;;;;;5083896;28;20111;-60
2023/10/16 09:18:47;;;;;;;8.02;1.55;;;;;;;;;;5091615;28;20052;-60
2023/10/16 09:21:14;;;;;;;12.35;1.63;;;;;;;;;;5077349;28;20090;-60
2023/10/16 09:23:42;;;;;;;9.40;1.35;;;;;;;;;;5089173;28;20044;-60
2023/10/16 09:26:10;;;;;;;9.80;1.50;;;;;;;;;;5086860;28;20090;-60
2023/10/16 09:28:36;;;;;;;7.07;1.38;;;;;;;;;;5081158;28;20062;-60
2023/10/16 09:31:06;;;;;;;10.27;2.38;;;;;;;;;;5086378;28;20102;-60
2023/10/16 09:33:34;;;;;;;8.90;1.48;;;;;;;;;;5090668;28;20052;-60
2023/10/16 09:36:17;;;;;;;7.63;1.50;;;;;;;;;;5077116;28;20488;-60
2023/10/16 09:38:51;;;;;;;7.35;1.85;;;;;;;;;;5081354;28;20496;-60
2023/10/16 09:43:56;;;;;;;7.15;1.33;;;;;;;;;;5090051;28;20118;-60
2023/10/16 09:49:13;;;;;;;7.85;1.02;;;;;;;;;;5080133;28;20400;-60
2023/10/16 09:51:45;;;;;;;7.18;1.20;;;;;;;;;;5075301;28;20044;-60
2023/10/16 09:54:13;;;;;;;6.40;1.30;;;;;;;;;;5087491;28;20399;-60
2023/10/16 09:56:40;;;;;;;5.43;1.25;;;;;;;;;;5082723;28;20075;-60
2023/10/16 09:59:12;;;;;;;12.00;1.55;;;;;;;;;;5078585;28;20044;-60
2023/10/16 10:01:45;;;;;;;6.85;2.05;;;;;;;;;;5090717;28;20051;-60
2023/10/16 10:04:19;;;;;;;9.93;2.85;;;;;;;;;;5086250;28;20535;-60
2023/10/16 10:06:47;;;;;;;2.83;0.88;;;;;;;;;;5075298;28;20062;-60
2023/10/16 10:11:47;;;;;;;4.78;1.00;;;;;;;;;;5090580;28;20050;-60
2023/10/16 10:16:56;;;;;;;4.20;1.00;;;;;;;;;;5075798;28;20052;-60
2023/10/16 10:19:35;;;;;;;3.72;1.00;;;;;;;;;;5070885;28;20059;-60
2023/10/16 10:22:06;;;;;;;9.20;1.15;;;;;;;;;;5080853;28;20044;-60
2023/10/16 10:24:35;;;;;;;6.05;1.50;;;;;;;;;;5083914;28;20052;-60
2023/10/16 10:27:03;;;;;;;5.47;1.38;;;;;;;;;;5087340;28;20486;-60
2023/10/16 10:29:29;;;;;;;6.50;1.48;;;;;;;;;;5084847;28;20098;-60
2023/10/16 10:32:05;;;;;;;6.13;1.15;;;;;;;;;;5091154;28;20044;-60
2023/10/16 10:34:31;;;;;;;9.60;1.10;;;;;;;;;;5077197;28;20033;-60
2023/10/16 10:36:58;;;;;;;4.47;1.20;;;;;;;;;;5089949;28;20127;-60
2023/10/16 10:42:10;;;;;;;4.88;1.25;;;;;;;;;;5073884;28;20120;-60
2023/10/16 10:44:40;;;;;;;5.75;1.30;;;;;;;;;;5080126;28;20036;-60
2023/10/16 10:47:20;;;;;;;7.03;1.50;;;;;;;;;;5087150;28;20409;-60
2023/10/16 10:49:49;;;;;;;8.20;1.20;;;;;;;;;;5083215;28;20084;-60
2023/10/16 10:52:18;;;;;;;7.32;1.27;;;;;;;;;;5074260;28;20055;-61
2023/10/16 10:54:48;;;;;;;7.22;1.35;;;;;;;;;;5073136;28;20048;-61
2023/10/16 10:57:24;;;;;;;6.95;1.45;;;;;;;;;;5085704;28;20079;-61
2023/10/16 11:00:22;;;;;;;6.28;1.30;;;;;;;;;;5067498;28;20048;-60
2023/10/16 11:02:52;;;;;;;7.82;1.45;;;;;;;;;;5067801;28;20041;-61
2023/10/16 11:05:26;;;;;;;8.07;1.55;;;;;;;;;;5070282;28;20127;-61
2023/10/16 11:10:44;;;;;;;3.63;1.20;;;;;;;;;;5070220;28;20040;-61
2023/10/16 11:13:11;;;;;;;8.48;1.45;;;;;;;;;;5071246;28;20052;-61
2023/10/16 11:16:00;;;;;;;5.82;1.00;;;;;;;;;;5072590;28;20044;-61
2023/10/16 11:18:26;;;;;;;5.28;1.10;;;;;;;;;;5062296;28;20111;-61
2023/10/16 11:20:54;;;;;;;6.72;1.27;;;;;;;;;;5071951;28;20052;-61
2023/10/16 11:23:21;;;;;;;6.70;1.35;;;;;;;;;;5071907;28;20044;-61
2023/10/16 11:25:52;;;;;;;7.47;1.40;;;;;;;;;;5066582;28;21381;-60
2023/10/16 11:28:20;;;;;;;8.52;2.00;;;;;;;;;;5072793;28;20049;-61
2023/10/16 11:30:47;;;;;;;6.30;1.27;;;;;;;;;;5071040;28;20131;-61
2023/10/16 11:33:13;;;;;;;5.68;1.10;;;;;;;;;;5071871;28;20041;-61
2023/10/16 11:35:46;;;;;;;7.70;1.05;;;;;;;;;;5070818;28;20036;-60
2023/10/16 11:38:13;;;;;;;4.13;1.17;;;;;;;;;;5070947;28;20455;-61
2023/10/16 11:40:42;;;;;;;5.78;1.00;;;;;;;;;;5069857;28;20036;-61
2023/10/16 11:43:31;;;;;;;7.05;1.30;;;;;;;;;;5071968;28;20040;-61
2023/10/16 11:46:04;;;;;;;5.40;1.58;;;;;;;;;;5069967;28;20127;-61
2023/10/16 11:51:10;;;;;;;10.77;1.15;;;;;;;;;;5071712;28;20036;-61
2023/10/16 11:53:39;;;;;;;6.30;1.10;;;;;;;;;;5072204;28;20514;-61
2023/10/16 11:56:08;;;;;;;6.63;1.42;;;;;;;;;;5071610;28;20085;-60
2023/10/16 11:58:35;;;;;;;6.78;1.30;;;;;;;;;;5071019;28;20089;-60
2023/10/16 12:01:11;;;;;;;2.63;0.77;;;;;;;;;;5086778;28;20545;-60
2023/10/16 12:03:38;;;;;;;12.27;1.58;;;;;;;;;;5079845;28;20047;-60
2023/10/16 12:06:13;;;;;;;6.85;1.20;;;;;;;;;;5080308;28;20048;-60
2023/10/16 12:08:44;;;;;;;5.35;1.00;;;;;;;;;;5067143;28;20099;-60
2023/10/16 12:11:14;;;;;;;4.97;1.30;;;;;;;;;;5090369;28;20108;-60
2023/10/16 12:13:43;;;;;;;3.80;1.13;;;;;;;;;;5075035;28;20054;-61
2023/10/16 12:16:10;;;;;;;8.05;1.40;;;;;;;;;;5091546;28;20125;-61
2023/10/16 12:18:36;;;;;;;6.35;1.05;;;;;;;;;;5089586;28;20047;-60
2023/10/16 12:21:05;;;;;;;4.82;1.17;;;;;;;;;;5092440;28;20050;-60
2023/10/16 12:23:33;;;;;;;6.45;1.45;;;;;;;;;;5076457;28;20042;-61
2023/10/16 12:26:02;;;;;;;9.07;1.13;;;;;;;;;;5071659;28;20119;-60
2023/10/16 12:28:30;;;;;;;7.15;1.05;;;;;;;;;;5087019;28;20045;-60
2023/10/16 12:30:57;;;;;;;8.73;1.17;;;;;;;;;;5080992;28;20062;-61
2023/10/16 12:33:26;;;;;;;8.52;1.35;;;;;;;;;;5077899;28;20048;-60
2023/10/16 12:35:55;;;;;;;6.40;1.10;;;;;;;;;;5086405;28;20051;-61
2023/10/16 12:38:25;;;;;;;8.15;1.05;;;;;;;;;;5092281;28;20224;-61
2023/10/16 12:40:59;;;;;;;5.95;1.90;;;;;;;;;;5063313;28;20044;-60
2023/10/16 12:43:29;;;;;;;12.18;2.20;;;;;;;;;;5073750;28;20044;-61
2023/10/16 12:45:58;;;;;;;11.88;2.65;;;;;;;;;;5076935;28;20055;-60
2023/10/16 12:48:30;;;;;;;10.02;1.85;;;;;;;;;;5084242;28;20121;-60
2023/10/16 12:51:00;;;;;;;4.75;1.08;;;;;;;;;;5081264;28;20499;-60
2023/10/16 12:53:29;;;;;;;7.25;1.67;;;;;;;;;;5091731;28;20325;-61
2023/10/16 12:55:58;;;;;;;4.43;1.20;;;;;;;;;;5087380;28;20051;-60
2023/10/16 12:58:25;;;;;;;5.50;1.25;;;;;;;;;;5074254;28;20051;-60
2023/10/16 13:00:52;;;;;;;10.45;1.40;;;;;;;;;;5074320;28;20063;-61
2023/10/16 13:03:22;;;;;;;7.50;1.27;;;;;;;;;;5078512;28;20115;-60
2023/10/16 13:05:49;;;;;;;6.05;1.15;;;;;;;;;;5090467;28;20052;-60
2023/10/16 13:08:22;;;;;;;8.05;1.15;;;;;;;;;;5083835;28;20048;-61
2023/10/16 13:10:50;;;;;;;9.25;1.00;;;;;;;;;;5088853;28;20047;-60
2023/10/16 13:13:21;;;;;;;7.32;1.20;;;;;;;;;;5077794;28;20468;-60
2023/10/16 13:15:54;;;;;;;10.77;1.35;;;;;;;;;;5090681;28;20102;-60
2023/10/16 13:18:27;;;;;;;7.40;1.13;;;;;;;;;;5089057;28;20090;-60
2023/10/16 13:21:14;;;;;;;7.32;1.20;;;;;;;;;;5091549;28;20109;-60
2023/10/16 13:23:40;;;;;;;7.47;1.20;;;;;;;;;;5074831;28;20412;-60
2023/10/16 13:26:10;;;;;;;11.55;1.27;;;;;;;;;;5091637;28;20054;-60
2023/10/16 13:28:38;;;;;;;9.02;1.42;;;;;;;;;;5081456;28;20040;-61
2023/10/16 13:31:05;;;;;;;8.18;1.85;;;;;;;;;;5090883;28;20098;-60
2023/10/16 13:33:34;;;;;;;7.07;1.30;;;;;;;;;;5077490;28;20059;-60
2023/10/16 13:36:01;;;;;;;5.40;1.38;;;;;;;;;;5090262;28;20559;-61
2023/10/16 13:38:27;;;;;;;5.47;1.20;;;;;;;;;;5083479;28;20697;-60
2023/10/16 13:40:56;;;;;;;6.30;1.08;;;;;;;;;;5091066;28;20036;-60
2023/10/16 13:43:22;;;;;;;8.48;1.60;;;;;;;;;;5075291;28;20052;-60
2023/10/16 13:45:51;;;;;;;7.72;1.25;;;;;;;;;;5086480;28;20051;-60
2023/10/16 13:48:21;;;;;;;15.52;1.90;;;;;;;;;;5085198;28;20365;-61
2023/10/16 13:50:53;;;;;;;5.97;1.30;;;;;;;;;;5073129;28;20036;-59
2023/10/16 13:53:24;;;;;;;5.40;1.20;;;;;;;;;;5067728;28;20056;-60
2023/10/16 13:55:54;;;;;;;5.15;1.10;;;;;;;;;;5077920;28;20080;-61
2023/10/16 13:58:21;;;;;;;5.60;1.13;;;;;;;;;;5072106;28;20412;-61
2023/10/16 14:00:47;;;;;;;10.80;1.25;;;;;;;;;;5077517;28;20037;-60
2023/10/16 14:05:44;;;;;;;9.27;1.67;;;;;;;;;;5076493;28;20055;-61
2023/10/16 14:08:10;;;;;;;4.47;1.10;;;;;;;;;;5061337;28;20053;-61
2023/10/16 14:10:39;;;;;;;6.15;1.20;;;;;;;;;;5056541;28;20060;-61
2023/10/16 14:13:11;;;;;;;6.38;1.27;;;;;;;;;;5059083;28;20055;-61
2023/10/16 14:15:41;;;;;;;6.63;1.40;;;;;;;;;;5060063;28;20052;-61
2023/10/16 14:18:15;;;;;;;6.72;1.33;;;;;;;;;;5065177;28;20079;-61
2023/10/16 14:20:48;;;;;;;4.15;1.15;;;;;;;;;;5061678;28;20087;-60
2023/10/16 14:23:18;;;;;;;4.70;1.08;;;;;;;;;;5064538;28;20093;-60
2023/10/16 14:25:47;;;;;;;3.88;0.98;;;;;;;;;;5067649;28;20093;-59
2023/10/16 14:31:00;;;;;;;7.55;1.63;;;;;;;;;;5069844;28;20090;-60
2023/10/16 14:33:30;;;;;;;4.93;1.00;;;;;;;;;;5066746;28;20044;-60
2023/10/16 14:36:00;;;;;;;9.00;1.20;;;;;;;;;;5070184;28;20048;-60
2023/10/16 14:38:27;;;;;;;4.50;1.42;;;;;;;;;;5070244;28;20456;-60
2023/10/16 14:41:04;;;;;;;6.13;1.30;;;;;;;;;;5069493;28;20048;-60
2023/10/16 14:43:30;;;;;;;7.60;1.50;;;;;;;;;;5067749;28;20120;-60
2023/10/16 14:46:00;;;;;;;7.97;1.40;;;;;;;;;;5064280;28;20045;-60
2023/10/16 14:48:28;;;;;;;5.43;0.80;;;;;;;;;;5068542;28;20040;-60
2023/10/16 14:50:54;;;;;;;7.72;1.50;;;;;;;;;;5069034;28;20052;-60
2023/10/16 14:53:21;;;;;;;6.45;1.13;;;;;;;;;;5067103;28;20569;-60
2023/10/16 14:55:48;;;;;;;6.45;0.98;;;;;;;;;;5069173;28;20071;-60
2023/10/16 14:58:14;;;;;;;6.80;1.27;;;;;;;;;;5067918;28;20047;-60
2023/10/16 15:00:50;;;;;;;6.93;1.40;;;;;;;;;;5080080;28;20356;-60
2023/10/16 15:03:20;;;;;;;8.13;1.50;;;;;;;;;;5076894;28;20044;-60
2023/10/16 15:05:49;;;;;;;8.73;1.45;;;;;;;;;;5076320;28;20481;-60
2023/10/16 15:08:18;;;;;;;6.07;1.10;;;;;;;;;;5075431;28;20459;-60
2023/10/16 15:10:46;;;;;;;7.30;1.33;;;;;;;;;;5077872;28;20123;-60
2023/10/16 15:13:15;;;;;;;8.00;1.50;;;;;;;;;;5076355;28;20105;-60
2023/10/16 15:15:42;;;;;;;9.75;1.35;;;;;;;;;;5074942;28;20188;-60
2023/10/16 15:18:09;;;;;;;3.90;1.15;;;;;;;;;;5076848;28;20097;-60
2023/10/16 15:20:36;;;;;;;4.13;0.73;;;;;;;;;;5083771;28;20495;-61
2023/10/16 15:23:03;;;;;;;4.13;0.80;;;;;;;;;;5078890;28;20145;-60
2023/10/16 15:25:34;;;;;;;4.43;0.98;;;;;;;;;;5072109;28;20045;-60
2023/10/16 15:28:01;;;;;;;6.50;1.30;;;;;;;;;;5070978;28;20052;-60
2023/10/16 15:30:27;;;;;;;4.78;1.25;;;;;;;;;;5075811;28;20467;-60
2023/10/16 15:32:54;;;;;;;8.05;1.38;;;;;;;;;;5081343;28;20051;-60
2023/10/16 15:35:23;;;;;;;5.75;1.50;;;;;;;;;;5079824;28;20044;-60
2023/10/16 15:37:49;;;;;;;4.05;1.10;;;;;;;;;;5087121;28;20128;-60
2023/10/16 15:40:17;;;;;;;6.95;1.55;;;;;;;;;;5076732;28;20101;-60
2023/10/16 15:42:49;;;;;;;10.13;1.33;;;;;;;;;;5074313;28;20048;-60
2023/10/16 15:45:16;;;;;;;7.32;1.65;;;;;;;;;;5072083;28;20044;-60
2023/10/16 15:47:44;;;;;;;5.88;1.15;;;;;;;;;;5071680;28;20052;-60
2023/10/16 15:50:11;;;;;;;5.78;1.30;;;;;;;;;;5066185;28;20131;-60
2023/10/16 15:52:37;;;;;;;7.68;1.42;;;;;;;;;;5066967;28;20049;-60
2023/10/16 15:55:04;;;;;;;5.25;1.05;;;;;;;;;;5068550;28;20403;-60
2023/10/16 15:57:33;;;;;;;5.03;1.45;;;;;;;;;;5072217;28;20044;-59
2023/10/16 15:59:59;;;;;;;10.30;1.73;;;;;;;;;;5077418;28;20040;-59
2023/10/16 16:02:28;;;;;;;6.18;1.10;;;;;;;;;;5067647;28;20123;-60
2023/10/16 16:04:54;;;;;;;4.10;1.00;;;;;;;;;;5068991;28;20036;-60
2023/10/16 16:07:21;;;;;;;7.05;1.15;;;;;;;;;;5071434;28;20053;-59
2023/10/16 16:09:47;;;;;;;6.50;1.25;;;;;;;;;;5068768;28;20097;-59
2023/10/16 16:12:14;;;;;;;5.22;1.10;;;;;;;;;;5070815;28;20151;-59
2023/10/16 16:14:42;;;;;;;9.13;1.10;;;;;;;;;;5065774;28;20040;-60
2023/10/16 16:17:11;;;;;;;9.10;1.75;;;;;;;;;;5070908;28;20045;-59
2023/10/16 16:19:39;;;;;;;4.05;1.15;;;;;;;;;;5070783;28;20051;-59
2023/10/16 16:22:10;;;;;;;5.32;1.23;;;;;;;;;;5069864;28;20141;-60
2023/10/16 16:24:39;;;;;;;9.95;1.42;;;;;;;;;;5067844;28;20459;-59
2023/10/16 16:27:08;;;;;;;6.10;1.42;;;;;;;;;;5070812;28;20381;-60
2023/10/16 16:29:37;;;;;;;7.82;1.48;;;;;;;;;;5062582;28;20064;-59
2023/10/16 16:32:04;;;;;;;5.90;1.40;;;;;;;;;;5063111;28;20059;-61
2023/10/16 16:34:31;;;;;;;5.65;1.65;;;;;;;;;;5064513;28;20072;-60
2023/10/16 16:37:00;;;;;;;6.53;1.50;;;;;;;;;;5061767;28;20480;-59
2023/10/16 16:39:35;;;;;;;6.93;1.10;;;;;;;;;;5060145;28;20040;-60
2023/10/16 16:42:04;;;;;;;6.95;1.95;;;;;;;;;;5061832;28;20033;-59
2023/10/16 16:44:30;;;;;;;7.35;1.20;;;;;;;;;;5060862;28;20092;-59
2023/10/16 16:46:58;;;;;;;13.13;1.48;;;;;;;;;;5060424;28;20052;-59
2023/10/16 16:49:27;;;;;;;7.70;2.28;;;;;;;;;;5062624;28;20554;-59
2023/10/16 16:51:54;;;;;;;6.95;1.80;;;;;;;;;;5063810;28;20033;-59
2023/10/16 16:54:21;;;;;;;4.55;1.25;;;;;;;;;;5061047;28;20060;-59
2023/10/16 16:56:47;;;;;;;8.85;1.40;;;;;;;;;;5062329;28;20510;-59
2023/10/16 16:59:16;;;;;;;6.57;1.60;;;;;;;;;;5060929;28;20387;-59
2023/10/16 17:01:46;;;;;;;6.38;1.48;;;;;;;;;;5061474;28;20046;-59
2023/10/16 17:04:13;;;;;;;8.05;2.70;;;;;;;;;;5063043;28;20418;-60
2023/10/16 17:06:40;;;;;;;16.48;3.33;;;;;;;;;;5063962;28;20143;-59
2023/10/16 17:09:11;;;;;;;9.07;3.53;;;;;;;;;;5063707;28;20049;-59
2023/10/16 17:11:38;;;;;;;13.27;4.43;;;;;;;;;;5061671;28;20047;-60
2023/10/16 17:14:05;;;;;;;14.63;5.28;;;;;;;;;;5062336;28;20053;-59
2023/10/16 17:16:31;;;;;;;14.52;6.65;;;;;;;;;;5061285;28;20079;-59